Terminal Aerodrome Forecast
Issued by NWS Mt. Holly, NJ

Home | Current Version | Previous Version | Text Only | Print | Product List | Glossary On
Versions: 1 2 3 4 5 6 7 8 9 10 11 12 13 14 15 16 17 18
000
FTUS41 KPHI 281120
TAFRDG
TAF
KRDG 281120Z 2812/0112 00000KT P6SM OVC100
     FM281500 15004KT P6SM SCT100
     FM282100 16006KT P6SM BKN100 BKN250
     FM282300 15005KT 2SM SHRA BR BKN025 OVC050
     FM010300 18005KT 2SM SHRA BR BKN003 OVC008
     FM010700 21006KT 2SM BR OVC003=

USA.gov is the U.S. government's official web portal to all federal, state and local government web resources and services.